Time;durP1;ratioP1;P1;durP2;ratioP2;P2;SDS_P1;SDS_P2;PMS_P1;PMS_P2;Temp;Humidity;BMP_temperature;BMP_pressure;BME280_temperature;BME280_humidity;BME280_pressure;Samples;Min_cycle;Max_cycle;Signal;HPM_P1;HPM_P2
2023/04/07 00:01:13;;;;;;;27.92;15.40;;;;;;;5.45;54.09;99551.47;7658051;32;37826;-79
2023/04/07 00:05:29;;;;;;;28.65;16.75;;;;;;;5.35;54.23;99552.09;7657923;32;37213;-78
2023/04/07 00:09:46;;;;;;;26.83;15.98;;;;;;;5.04;54.31;99551.53;7640222;32;40223;-79
2023/04/07 00:14:02;;;;;;;25.52;16.05;;;;;;;5.14;54.40;99556.34;7631620;32;40895;-79
2023/04/07 00:18:18;;;;;;;26.98;15.32;;;;;;;5.17;53.78;99549.59;7631514;32;38680;-79
2023/04/07 00:22:35;;;;;;;23.15;14.43;;;;;;;5.20;53.16;99554.53;7631504;32;37998;-79
2023/04/07 00:26:51;;;;;;;23.80;15.23;;;;;;;5.05;53.33;99546.94;7631356;32;39957;-79
2023/04/07 00:31:07;;;;;;;24.90;14.95;;;;;;;4.80;54.16;99537.31;7631274;32;39761;-79
2023/04/07 00:35:23;;;;;;;25.92;15.07;;;;;;;4.88;53.82;99530.69;7648904;32;37947;-79
2023/04/07 00:39:39;;;;;;;26.10;15.85;;;;;;;4.81;54.13;99530.84;7657475;32;37958;-79
2023/04/07 00:43:56;;;;;;;26.45;15.02;;;;;;;5.06;53.69;99527.81;7657529;32;40145;-79
2023/04/07 00:48:12;;;;;;;23.83;15.32;;;;;;;4.90;53.45;99528.59;7657098;32;40048;-79
2023/04/07 00:52:28;;;;;;;26.10;15.02;;;;;;;5.34;52.92;99528.03;7657141;32;37853;-79
2023/04/07 00:56:45;;;;;;;25.58;15.18;;;;;;;5.10;53.61;99528.13;7657107;32;38446;-79
2023/04/07 01:01:08;;;;;;;23.25;15.07;;;;;;;4.95;53.70;99519.75;7655857;32;39243;-79
2023/04/07 01:05:58;;;;;;;24.92;14.60;;;;;;;5.27;53.13;99511.94;7638434;32;39942;-79
2023/04/07 01:10:22;;;;;;;22.75;14.32;;;;;;;5.08;53.48;99514.84;7630374;32;39087;-79
2023/04/07 01:14:53;;;;;;;26.55;14.63;;;;;;;4.92;53.93;99506.75;7629246;32;37285;-79
2023/04/07 01:19:19;;;;;;;26.60;14.43;;;;;;;5.10;53.54;99501.09;7629295;32;39027;-79
2023/04/07 01:23:57;;;;;;;22.40;14.23;;;;;;;5.21;53.33;99504.84;7629022;32;39888;-79
2023/04/07 01:28:35;;;;;;;21.17;14.52;;;;;;;5.38;52.77;99502.97;7629957;32;37861;-79
2023/04/07 01:32:52;;;;;;;18.65;12.45;;;;;;;5.00;53.20;99504.47;7603878;32;37022;-79
2023/04/07 01:37:08;;;;;;;21.25;12.95;;;;;;;5.19;53.20;99496.97;7602608;32;40150;-79
2023/04/07 01:41:25;;;;;;;24.10;14.23;;;;;;;5.23;52.93;99497.31;7603769;32;39799;-79
2023/04/07 01:45:41;;;;;;;25.25;13.45;;;;;;;5.09;53.27;99488.69;7603552;32;38668;-79
2023/04/07 01:50:00;;;;;;;22.23;13.70;;;;;;;4.82;53.60;99491.97;7602337;32;38012;-79
2023/04/07 01:54:17;;;;;;;20.37;12.37;;;;;;;5.16;53.02;99488.53;7603478;32;39336;-79
2023/04/07 01:58:33;;;;;;;22.50;13.62;;;;;;;5.06;53.29;99489.16;7605794;32;39569;-79
2023/04/07 02:02:54;;;;;;;23.27;13.23;;;;;;;5.22;52.71;99485.66;7633195;32;37898;-79
2023/04/07 02:07:20;;;;;;;23.15;14.15;;;;;;;5.45;52.25;99483.88;7632016;32;37189;-79
2023/04/07 02:11:36;;;;;;;20.10;13.23;;;;;;;5.34;52.59;99487.47;7631902;32;39433;-79
2023/04/07 02:15:54;;;;;;;21.52;14.48;;;;;;;5.36;52.28;99488.84;7631840;32;40130;-78
2023/04/07 02:20:11;;;;;;;22.58;13.35;;;;;;;5.27;52.37;99499.25;7631888;32;37719;-79
2023/04/07 02:24:28;;;;;;;19.20;13.05;;;;;;;5.27;53.00;99491.13;7636214;32;37230;-79
2023/04/07 02:28:44;;;;;;;27.02;14.93;;;;;;;5.68;51.59;99492.91;7659076;32;40346;-79
2023/04/07 02:33:00;;;;;;;23.48;14.57;;;;;;;5.53;51.40;99488.06;7659118;32;40753;-80
2023/04/07 02:37:17;;;;;;;20.95;13.85;;;;;;;5.29;54.74;99482.78;7659014;32;37988;-79
2023/04/07 02:41:33;;;;;;;20.45;13.68;;;;;;;4.79;53.75;99487.03;7658984;32;37190;-79
2023/04/07 02:45:49;;;;;;;23.80;14.43;;;;;;;5.45;52.23;99481.19;7658962;32;39023;-79
2023/04/07 02:50:06;;;;;;;22.73;12.93;;;;;;;5.44;52.37;99476.81;7658941;32;39941;-79
2023/04/07 02:54:22;;;;;;;23.08;14.20;;;;;;;5.28;52.58;99483.88;7656704;32;38008;-78
2023/04/07 02:58:39;;;;;;;24.45;13.98;;;;;;;5.45;51.74;99492.00;7632543;32;37317;-79
2023/04/07 03:02:55;;;;;;;20.20;13.77;;;;;;;5.48;51.95;99483.37;7632593;32;39333;-79
2023/04/07 03:07:11;;;;;;;18.33;12.93;;;;;;;5.21;52.51;99481.31;7632341;32;39683;-79
2023/04/07 03:11:28;;;;;;;20.50;12.55;;;;;;;5.50;51.53;99470.41;7631218;32;37895;-79
2023/04/07 03:15:44;;;;;;;20.45;13.18;;;;;;;5.16;52.01;99478.53;7632414;32;37264;-79
2023/04/07 03:20:00;;;;;;;19.85;12.45;;;;;;;5.43;51.45;99476.03;7632770;32;39344;-79
2023/04/07 03:24:17;;;;;;;22.48;13.13;;;;;;;5.50;51.32;99489.34;7656045;32;40095;-79
2023/04/07 03:28:33;;;;;;;20.20;13.05;;;;;;;5.56;50.88;99488.38;7658358;32;38371;-78
2023/04/07 03:32:49;;;;;;;22.62;13.15;;;;;;;5.55;51.32;99497.53;7656971;32;37157;-77
2023/04/07 03:37:06;;;;;;;20.48;13.43;;;;;;;5.76;50.98;99504.13;7658427;32;39159;-79
2023/04/07 03:41:22;;;;;;;19.50;12.60;;;;;;;5.76;50.97;99487.88;7650921;32;40087;-79
2023/04/07 03:45:38;;;;;;;22.65;13.80;;;;;;;5.55;51.60;99496.72;7632180;32;37852;-79
2023/04/07 03:49:55;;;;;;;20.30;12.75;;;;;;;5.67;51.37;99488.53;7631957;32;38096;-79
2023/04/07 03:54:11;;;;;;;21.90;13.00;;;;;;;5.29;51.89;99490.91;7657832;32;38975;-79
2023/04/07 03:58:27;;;;;;;21.75;12.93;;;;;;;5.04;53.06;99492.09;7658076;32;40789;-80
2023/04/07 04:02:44;;;;;;;22.48;13.32;;;;;;;5.48;52.05;99491.47;7640894;32;38712;-79
2023/04/07 04:07:00;;;;;;;22.80;12.88;;;;;;;5.12;52.86;99492.75;7630433;32;37409;-79
2023/04/07 04:11:16;;;;;;;17.83;12.85;;;;;;;5.57;51.89;99495.44;7638972;32;40059;-79
2023/04/07 04:15:33;;;;;;;22.73;13.45;;;;;;;5.46;52.05;99489.03;7657942;32;40039;-80
2023/04/07 04:19:50;;;;;;;18.98;13.73;;;;;;;5.46;51.53;99496.31;7657430;32;37828;-79
2023/04/07 04:24:06;;;;;;;23.17;13.15;;;;;;;5.53;51.40;99501.56;7656199;32;38049;-79
2023/04/07 04:28:22;;;;;;;19.50;13.80;;;;;;;5.82;50.87;99510.41;7657760;32;40142;-79
2023/04/07 04:32:38;;;;;;;22.40;14.35;;;;;;;5.43;52.58;99513.03;7640897;32;39943;-79
2023/04/07 04:36:55;;;;;;;20.62;12.70;;;;;;;5.87;51.72;99521.31;7631250;32;38735;-79
2023/04/07 04:41:11;;;;;;;22.02;13.70;;;;;;;6.24;51.44;99528.09;7637961;32;36985;-79
2023/04/07 04:45:27;;;;;;;20.48;13.45;;;;;;;6.10;52.25;99523.03;7632994;32;39861;-79
2023/04/07 04:49:43;;;;;;;23.70;14.40;;;;;;;6.15;51.86;99522.28;7630906;32;40560;-78
2023/04/07 04:54:01;;;;;;;25.12;14.77;;;;;;;5.93;52.00;99531.16;7653820;32;38116;-78
2023/04/07 04:58:20;;;;;;;23.30;14.40;;;;;;;5.96;51.29;99524.44;7657089;32;37165;-79
2023/04/07 05:02:37;;;;;;;23.62;14.70;;;;;;;5.99;51.45;99529.37;7639202;32;40186;-77
2023/04/07 05:06:53;;;;;;;20.60;13.62;;;;;;;6.07;51.77;99528.97;7630626;32;40092;-78
2023/04/07 05:11:10;;;;;;;24.70;14.25;;;;;;;6.17;51.54;99526.41;7630012;32;38483;-78
2023/04/07 05:15:26;;;;;;;27.85;15.00;;;;;;;6.15;52.06;99538.53;7630588;32;37996;-80
2023/04/07 05:19:42;;;;;;;26.08;15.18;;;;;;;6.20;52.45;99544.03;7630568;32;40069;-80
2023/04/07 05:23:59;;;;;;;26.00;15.70;;;;;;;6.16;52.48;99545.59;7656034;32;41349;-79
2023/04/07 05:28:15;;;;;;;27.15;16.02;;;;;;;5.40;54.28;99544.09;7656450;32;37714;-80
2023/04/07 05:32:31;;;;;;;28.02;16.87;;;;;;;5.40;54.55;99554.09;7639513;32;37846;-80
2023/04/07 05:36:48;;;;;;;27.27;15.35;;;;;;;6.04;52.73;99561.94;7650990;32;39304;-79
2023/04/07 05:41:04;;;;;;;29.27;16.10;;;;;;;5.63;54.38;99564.75;7652660;32;40139;-80
2023/04/07 05:45:20;;;;;;;25.33;15.40;;;;;;;5.73;53.95;99557.91;7659457;32;37913;-80
2023/04/07 05:49:39;;;;;;;24.92;15.75;;;;;;;5.91;54.10;99559.53;7655101;32;38502;-80
2023/04/07 05:53:55;;;;;;;28.62;18.15;;;;;;;5.83;54.32;99558.87;7642782;32;40106;-81
2023/04/07 05:58:12;;;;;;;28.35;16.92;;;;;;;5.59;55.03;99549.28;7632858;32;40136;-82
2023/04/07 06:02:28;;;;;;;31.62;17.98;;;;;;;5.21;56.12;99557.00;7632975;32;37952;-84
2023/04/07 06:06:45;;;;;;;26.42;16.55;;;;;;;5.17;55.85;99563.94;7632969;32;37141;-72
2023/04/07 06:11:01;;;;;;;30.00;17.75;;;;;;;5.55;56.23;99567.03;7633064;32;39483;-81
2023/04/07 06:15:17;;;;;;;26.15;16.45;;;;;;;5.47;55.22;99562.88;7635873;32;40992;-80
2023/04/07 06:19:33;;;;;;;28.73;17.10;;;;;;;5.56;55.33;99564.09;7628244;32;37840;-79
2023/04/07 06:23:49;;;;;;;26.35;16.33;;;;;;;5.59;55.51;99569.03;7632870;32;38082;-80
2023/04/07 06:28:06;;;;;;;27.98;16.90;;;;;;;5.94;54.95;99576.06;7632915;32;40104;-81
2023/04/07 06:32:23;;;;;;;33.50;16.85;;;;;;;5.44;54.64;99576.88;7632015;32;40801;-82
2023/04/07 06:36:39;;;;;;;30.10;18.02;;;;;;;5.57;54.92;99571.16;7632745;32;38076;-79
2023/04/07 06:40:55;;;;;;;25.85;16.95;;;;;;;5.76;55.00;99569.03;7632644;32;36901;-81
2023/04/07 06:45:11;;;;;;;27.95;17.25;;;;;;;5.57;55.31;99576.56;7613885;32;39965;-81
2023/04/07 06:49:28;;;;;;;30.30;18.40;;;;;;;5.75;53.64;99574.69;7630342;32;40832;-81
2023/04/07 06:53:46;;;;;;;29.37;17.30;;;;;;;5.79;55.12;99579.34;7632151;32;38787;-80
2023/04/07 06:58:02;;;;;;;28.05;17.67;;;;;;;6.14;54.24;99580.19;7632672;32;37080;-80
2023/04/07 07:02:19;;;;;;;28.05;16.73;;;;;;;5.69;53.91;99579.22;7636456;32;39876;-80
2023/04/07 07:06:35;;;;;;;29.02;16.92;;;;;;;6.34;52.94;99580.50;7631845;32;39840;-80
2023/04/07 07:10:52;;;;;;;30.85;16.08;;;;;;;6.26;52.77;99589.06;7634924;32;38657;-80
2023/04/07 07:15:09;;;;;;;27.05;16.52;;;;;;;6.42;52.50;99592.00;7647899;32;37135;-80
2023/04/07 07:19:25;;;;;;;25.42;15.68;;;;;;;6.86;52.08;99594.72;7643617;32;40036;-80
2023/04/07 07:23:41;;;;;;;25.15;15.95;;;;;;;6.96;50.68;99600.28;7620508;32;39840;-80
2023/04/07 07:27:57;;;;;;;24.70;15.48;;;;;;;7.03;50.89;99603.59;7617029;32;37575;-80
2023/04/07 07:32:13;;;;;;;25.73;15.63;;;;;;;7.06;50.86;99613.94;7614897;32;38021;-80
2023/04/07 07:36:31;;;;;;;27.15;15.73;;;;;;;7.13;50.30;99614.56;7619700;32;40206;-79
2023/04/07 07:40:47;;;;;;;26.00;15.68;;;;;;;6.98;50.47;99611.69;7615323;32;40690;-78
2023/04/07 07:45:04;;;;;;;31.33;17.40;;;;;;;6.96;51.17;99624.66;7614440;32;38499;-79
2023/04/07 07:49:20;;;;;;;28.98;15.85;;;;;;;7.07;51.90;99621.03;7615509;32;35578;-79
2023/04/07 07:53:36;;;;;;;29.33;17.35;;;;;;;6.90;51.25;99629.22;7629627;32;39390;-78
2023/04/07 07:57:53;;;;;;;26.33;16.17;;;;;;;6.64;51.70;99633.47;7617904;32;41329;-78
2023/04/07 08:02:12;;;;;;;26.08;16.00;;;;;;;6.51;51.75;99640.03;7644736;32;38494;-79
2023/04/07 08:06:30;;;;;;;27.15;16.30;;;;;;;6.71;52.35;99649.53;7658147;32;37913;-79
2023/04/07 08:10:46;;;;;;;26.27;16.15;;;;;;;6.90;52.64;99641.94;7657866;32;39336;-78
2023/04/07 08:15:03;;;;;;;24.15;15.15;;;;;;;6.58;52.32;99645.28;7658158;32;39930;-80
2023/04/07 08:19:19;;;;;;;26.75;16.55;;;;;;;6.70;53.14;99654.12;7658000;32;37974;-80
2023/04/07 08:23:35;;;;;;;27.00;16.30;;;;;;;6.95;52.90;99650.97;7657903;32;36942;-79
2023/04/07 08:27:52;;;;;;;26.83;15.80;;;;;;;6.93;53.02;99649.56;7656878;32;40002;-79
2023/04/07 08:32:08;;;;;;;27.70;15.63;;;;;;;7.09;54.80;99651.41;7657683;32;40850;-83
2023/04/07 08:36:26;;;;;;;27.17;15.60;;;;;;;6.56;53.33;99666.41;7657695;32;37858;-80
2023/04/07 08:40:42;;;;;;;26.15;15.40;;;;;;;6.82;54.36;99662.16;7656464;32;37401;-80
2023/04/07 08:45:03;;;;;;;25.60;16.23;;;;;;;6.78;54.11;99669.16;7656319;32;39292;-79
2023/04/07 08:49:21;;;;;;;25.30;15.45;;;;;;;6.92;53.84;99664.19;7650324;32;39815;-80
2023/04/07 08:53:50;;;;;;;26.83;16.20;;;;;;;7.08;53.65;99671.44;7620806;32;37840;-80
2023/04/07 08:58:11;;;;;;;27.27;16.35;;;;;;;6.99;53.42;99672.16;7638545;32;37969;-80
2023/04/07 09:02:27;;;;;;;27.13;16.60;;;;;;;7.06;54.62;99661.94;7642751;32;39933;-80
2023/04/07 09:06:44;;;;;;;25.85;15.55;;;;;;;7.38;53.71;99659.34;7656942;32;40089;-82
2023/04/07 09:11:00;;;;;;;25.83;15.75;;;;;;;7.37;52.14;99662.31;7656981;32;37881;-80
2023/04/07 09:15:16;;;;;;;27.58;17.37;;;;;;;7.05;52.44;99661.09;7632748;32;37049;-80
2023/04/07 09:19:33;;;;;;;26.08;16.95;;;;;;;7.50;52.48;99670.88;7633863;32;40595;-80
2023/04/07 09:23:49;;;;;;;26.70;15.88;;;;;;;7.76;51.41;99652.16;7653213;32;40648;-81
2023/04/07 09:28:05;;;;;;;28.92;15.20;;;;;;;7.77;51.99;99656.47;7645391;32;37574;-80
2023/04/07 09:32:42;;;;;;;27.85;16.05;;;;;;;7.95;51.92;99651.75;7617414;32;38030;-79
2023/04/07 09:36:59;;;;;;;25.42;15.32;;;;;;;7.55;52.76;99661.12;7625242;32;39351;-81
2023/04/07 09:41:16;;;;;;;26.52;16.02;;;;;;;7.34;52.78;99664.44;7640599;32;39631;-78
2023/04/07 09:45:34;;;;;;;26.98;16.73;;;;;;;7.10;53.17;99663.88;7645145;32;37953;-79
2023/04/07 09:49:53;;;;;;;26.02;17.35;;;;;;;7.49;53.48;99671.13;7653045;32;37333;-79
2023/04/07 09:54:10;;;;;;;25.35;16.08;;;;;;;7.62;52.41;99668.00;7645899;32;39323;-79
2023/04/07 09:58:26;;;;;;;29.15;16.83;;;;;;;7.45;53.47;99669.97;7632082;32;40220;-79
2023/04/07 10:02:43;;;;;;;27.58;17.17;;;;;;;7.57;53.12;99667.13;7642481;32;38551;-79
2023/04/07 10:07:02;;;;;;;26.12;16.12;;;;;;;7.58;53.41;99668.78;7637226;32;37854;-79
2023/04/07 10:11:19;;;;;;;27.17;17.48;;;;;;;7.21;53.42;99666.72;7637288;32;39149;-80
2023/04/07 10:15:36;;;;;;;24.08;15.98;;;;;;;7.50;52.29;99670.88;7625371;32;39904;-79
2023/04/07 10:19:53;;;;;;;30.45;16.37;;;;;;;7.63;52.01;99669.62;7643496;32;37827;-79
2023/04/07 10:24:37;;;;;;;25.92;16.00;;;;;;;7.82;51.79;99675.53;7610100;32;37176;-80
2023/04/07 10:28:59;;;;;;;25.83;16.45;;;;;;;7.95;51.71;99670.75;7605702;32;39414;-83
2023/04/07 10:33:17;;;;;;;25.37;15.65;;;;;;;7.18;53.22;99675.38;7634223;32;39631;-79
2023/04/07 10:37:33;;;;;;;25.65;16.15;;;;;;;7.42;52.17;99673.22;7632858;32;37569;-79
2023/04/07 10:41:51;;;;;;;24.12;15.38;;;;;;;7.85;51.92;99666.06;7624493;32;37987;-78
2023/04/07 10:46:07;;;;;;;24.40;15.93;;;;;;;7.59;52.04;99673.09;7617713;32;39957;-81
2023/04/07 10:50:24;;;;;;;26.52;14.68;;;;;;;7.47;52.79;99671.38;7606612;32;39940;-81
2023/04/07 10:54:41;;;;;;;27.77;15.65;;;;;;;7.81;51.39;99676.62;7629745;32;38065;-81
2023/04/07 10:59:14;;;;;;;27.90;15.38;;;;;;;7.81;51.73;99673.06;7617538;32;37309;-81
2023/04/07 11:03:34;;;;;;;26.75;15.60;;;;;;;7.85;51.66;99685.06;7624899;32;40142;-81
2023/04/07 11:07:54;;;;;;;27.95;16.15;;;;;;;7.23;53.02;99683.56;7624773;32;250615;-81
2023/04/07 11:12:22;;;;;;;25.52;16.00;;;;;;;7.56;52.65;99681.78;7643328;32;38788;-80
2023/04/07 11:16:41;;;;;;;32.08;17.60;;;;;;;7.83;52.68;99687.19;7629501;32;37987;-77
2023/04/07 11:20:58;;;;;;;27.87;15.88;;;;;;;7.91;54.53;99678.59;7624318;32;39468;-81
2023/04/07 11:25:22;;;;;;;24.98;16.05;;;;;;;8.35;51.69;99689.31;7604517;32;40162;-81
2023/04/07 11:29:39;;;;;;;27.20;16.05;;;;;;;8.11;51.96;99688.84;7609873;32;37723;-81
2023/04/07 11:34:00;;;;;;;24.33;15.38;;;;;;;8.35;50.87;99689.31;7627615;32;36935;-81
2023/04/07 11:38:20;;;;;;;27.73;16.95;;;;;;;8.48;50.70;99692.69;7618445;32;38807;-81
2023/04/07 11:42:39;;;;;;;26.73;15.65;;;;;;;8.25;51.23;99692.75;7627092;32;40034;-81
2023/04/07 11:47:02;;;;;;;26.10;15.68;;;;;;;8.31;51.43;99690.09;7632081;32;38412;-81
2023/04/07 11:51:26;;;;;;;26.73;16.10;;;;;;;8.04;51.74;99686.34;7631983;32;37183;-81
2023/04/07 11:55:43;;;;;;;28.92;15.35;;;;;;;8.59;50.76;99678.94;7632077;32;40263;-78
2023/04/07 12:00:26;;;;;;;28.20;16.67;;;;;;;8.55;50.71;99683.22;7631886;32;40885;-79
2023/04/07 12:04:56;;;;;;;24.23;15.43;;;;;;;8.88;50.32;99685.88;7630357;32;38962;-80
2023/04/07 12:09:31;;;;;;;25.98;16.50;;;;;;;8.97;49.45;99682.41;7631584;32;37248;-80
2023/04/07 12:13:47;;;;;;;28.05;15.90;;;;;;;9.06;49.71;99679.19;7631878;32;39946;-80
2023/04/07 12:18:04;;;;;;;24.80;15.27;;;;;;;8.96;49.37;99675.34;7631661;32;40028;-80
2023/04/07 12:22:21;;;;;;;29.65;16.33;;;;;;;8.76;50.36;99672.50;7631599;32;37997;-79
2023/04/07 12:26:37;;;;;;;24.42;14.52;;;;;;;8.50;49.87;99675.03;7631601;32;37481;-79
2023/04/07 12:30:54;;;;;;;24.80;14.73;;;;;;;8.58;49.85;99682.72;7631509;32;39298;-79
2023/04/07 12:35:11;;;;;;;26.05;15.00;;;;;;;8.61;50.01;99671.31;7631371;32;40970;-80
2023/04/07 12:39:27;;;;;;;25.40;15.82;;;;;;;8.64;49.98;99665.37;7617789;32;37779;-79
2023/04/07 12:43:43;;;;;;;26.40;15.43;;;;;;;9.09;48.77;99674.06;7631017;32;37027;-79
2023/04/07 12:48:02;;;;;;;23.90;14.95;;;;;;;8.68;49.76;99670.28;7623620;32;38365;-79
2023/04/07 12:52:18;;;;;;;25.25;15.45;;;;;;;8.97;48.98;99676.97;7597059;32;40946;-79
2023/04/07 12:56:35;;;;;;;27.80;15.27;;;;;;;8.64;49.44;99675.41;7617537;32;37929;-79
2023/04/07 13:00:52;;;;;;;18.90;12.20;;;;;;;8.90;49.02;99681.84;7630991;32;37003;-78
2023/04/07 13:05:08;;;;;;;21.50;14.02;;;;;;;9.15;48.24;99686.56;7605179;32;39326;-78
2023/04/07 13:09:25;;;;;;;23.85;14.15;;;;;;;9.29;48.26;99686.09;7604333;32;39805;-78
2023/04/07 13:13:41;;;;;;;22.35;14.27;;;;;;;9.51;47.50;99685.91;7604646;32;37873;-79
2023/04/07 13:17:59;;;;;;;22.92;14.27;;;;;;;8.93;48.64;99681.28;7604266;32;36941;-79
2023/04/07 13:22:16;;;;;;;24.65;14.55;;;;;;;8.64;48.89;99673.53;7611855;32;39467;-79
2023/04/07 13:26:36;;;;;;;25.02;14.57;;;;;;;8.63;49.54;99674.59;7630212;32;40781;-79
2023/04/07 13:30:53;;;;;;;25.98;15.20;;;;;;;9.07;48.76;99675.38;7616641;32;38073;-80
2023/04/07 13:35:09;;;;;;;35.65;20.65;;;;;;;9.13;48.89;99677.88;7630105;32;37448;-79
2023/04/07 13:39:26;;;;;;;23.40;14.55;;;;;;;9.25;48.84;99679.56;7629979;32;39354;-80
2023/04/07 13:43:42;;;;;;;23.45;13.95;;;;;;;8.95;48.90;99684.59;7629870;32;40026;-80
2023/04/07 13:47:58;;;;;;;22.60;14.52;;;;;;;8.77;49.22;99679.56;7622739;32;38863;-81
2023/04/07 13:52:18;;;;;;;21.73;13.68;;;;;;;9.15;48.70;99685.75;7612951;32;38063;-81
2023/04/07 13:56:37;;;;;;;23.50;14.60;;;;;;;9.57;47.90;99682.09;7611944;32;40153;-81
2023/04/07 14:00:53;;;;;;;22.98;14.07;;;;;;;9.35;48.65;99687.75;7606917;32;40618;-80
2023/04/07 14:05:10;;;;;;;22.42;13.55;;;;;;;9.13;49.17;99691.47;7621909;32;37266;-81
2023/04/07 14:09:26;;;;;;;22.52;14.75;;;;;;;8.58;49.96;99687.34;7614864;32;37262;-81
2023/04/07 14:13:42;;;;;;;21.05;12.88;;;;;;;8.96;49.61;99688.94;7615874;32;39295;-81
2023/04/07 14:18:01;;;;;;;22.48;13.98;;;;;;;9.05;48.87;99683.81;7617697;32;40010;-79
2023/04/07 14:22:18;;;;;;;24.15;13.73;;;;;;;8.70;49.62;99684.44;7606816;32;37559;-79
2023/04/07 14:26:34;;;;;;;21.75;13.57;;;;;;;9.03;48.86;99677.81;7606842;32;37341;-78
2023/04/07 14:30:53;;;;;;;21.58;13.20;;;;;;;8.85;49.29;99687.25;7608481;32;38873;-79
2023/04/07 14:35:10;;;;;;;27.95;16.25;;;;;;;9.30;48.75;99680.41;7618806;32;40001;-79
2023/04/07 14:39:26;;;;;;;26.85;16.70;;;;;;;9.29;48.86;99692.34;7617910;32;38797;-79
2023/04/07 14:43:43;;;;;;;28.98;16.48;;;;;;;9.34;49.55;99691.56;7618772;32;38031;-79
2023/04/07 14:47:59;;;;;;;30.12;17.52;;;;;;;9.23;49.35;99696.16;7614396;32;39519;-79
2023/04/07 14:52:16;;;;;;;29.92;17.05;;;;;;;9.25;50.37;99696.69;7614447;32;40856;-79
2023/04/07 14:56:32;;;;;;;29.48;17.33;;;;;;;9.31;49.82;99700.25;7615635;32;38644;-79
2023/04/07 15:00:48;;;;;;;28.20;17.12;;;;;;;9.12;50.47;99691.72;7613995;32;37189;-79
2023/04/07 15:05:05;;;;;;;30.83;17.65;;;;;;;9.18;50.54;99690.69;7614570;32;40216;-79
2023/04/07 15:09:21;;;;;;;30.10;18.95;;;;;;;9.19;50.20;99701.31;7615734;32;40627;-79
2023/04/07 15:13:37;;;;;;;30.90;18.40;;;;;;;9.37;50.10;99694.56;7611114;32;37899;-80
2023/04/07 15:17:54;;;;;;;34.05;19.27;;;;;;;9.25;50.47;99696.69;7606372;32;38190;-79
2023/04/07 15:22:10;;;;;;;30.58;18.20;;;;;;;9.17;50.93;99694.47;7606386;32;40072;-79
2023/04/07 15:26:27;;;;;;;30.02;18.52;;;;;;;9.34;50.75;99705.16;7606186;32;40065;-79
2023/04/07 15:30:44;;;;;;;28.52;17.75;;;;;;;9.07;51.13;99699.84;7611109;32;37654;-79
2023/04/07 15:35:01;;;;;;;29.67;17.45;;;;;;;9.37;50.62;99694.56;7614704;32;36531;-79
2023/04/07 15:39:17;;;;;;;28.52;17.33;;;;;;;9.16;51.42;99701.00;7615399;32;40326;-79
2023/04/07 15:43:34;;;;;;;30.45;18.62;;;;;;;9.19;51.40;99705.91;7612658;32;39742;-79
2023/04/07 15:47:51;;;;;;;28.92;18.05;;;;;;;9.13;51.70;99710.50;7619959;32;36753;-79
2023/04/07 15:52:08;;;;;;;31.45;18.17;;;;;;;9.24;52.71;99710.56;7614381;32;37998;-79
2023/04/07 15:56:25;;;;;;;31.80;17.65;;;;;;;9.35;52.69;99713.06;7601169;32;39330;-79
2023/04/07 16:00:41;;;;;;;29.80;18.37;;;;;;;9.12;53.69;99717.00;7613153;32;41243;-79
2023/04/07 16:04:57;;;;;;;31.20;18.52;;;;;;;9.14;53.70;99719.47;7604936;32;38463;-80
2023/04/07 16:09:14;;;;;;;31.30;18.90;;;;;;;9.03;54.68;99711.25;7610992;32;37272;-79
2023/04/07 16:13:30;;;;;;;33.83;18.87;;;;;;;9.02;54.55;99720.50;7614142;32;39388;-79
2023/04/07 16:17:47;;;;;;;33.25;18.73;;;;;;;8.89;54.77;99712.00;7605993;32;40718;-80
2023/04/07 16:22:03;;;;;;;37.05;19.58;;;;;;;9.02;54.49;99709.63;7595853;32;38748;-80
2023/04/07 16:26:20;;;;;;;31.02;19.55;;;;;;;8.92;54.52;99715.00;7605269;32;37405;-79
2023/04/07 16:30:36;;;;;;;34.42;20.27;;;;;;;8.84;54.45;99724.47;7605497;32;39220;-80
2023/04/07 16:34:53;;;;;;;32.42;19.60;;;;;;;8.61;55.15;99720.25;7605292;32;40058;-82
2023/04/07 16:39:09;;;;;;;30.65;19.40;;;;;;;8.52;56.00;99729.97;7605298;32;37923;-82
2023/04/07 16:43:25;;;;;;;29.23;18.62;;;;;;;8.59;55.16;99727.84;7605390;32;37825;-82
2023/04/07 16:47:43;;;;;;;31.67;18.30;;;;;;;8.58;55.11;99742.50;7605240;32;38980;-81
2023/04/07 16:51:59;;;;;;;29.92;18.65;;;;;;;8.78;54.64;99741.03;7603469;32;39730;-82
2023/04/07 16:56:17;;;;;;;29.95;19.77;;;;;;;8.74;54.51;99746.12;7628065;32;37551;-82
2023/04/07 17:00:33;;;;;;;29.90;18.83;;;;;;;8.58;55.25;99753.38;7636487;32;36542;-81
2023/04/07 17:04:50;;;;;;;34.47;20.02;;;;;;;8.72;54.74;99747.50;7630923;32;39919;-80
2023/04/07 17:09:06;;;;;;;31.30;19.00;;;;;;;8.57;55.48;99750.91;7644859;32;40094;-80
2023/04/07 17:13:22;;;;;;;29.30;18.27;;;;;;;8.32;56.29;99756.91;7645520;32;37842;-81
2023/04/07 17:17:39;;;;;;;30.37;18.67;;;;;;;8.27;56.52;99768.53;7635976;32;38020;-83
2023/04/07 17:21:55;;;;;;;37.08;20.40;;;;;;;8.47;56.13;99767.97;7656790;32;39467;-84
2023/04/07 17:26:11;;;;;;;35.40;20.67;;;;;;;8.38;56.28;99767.59;7656581;32;40790;-84
2023/04/07 17:30:28;;;;;;;32.92;21.02;;;;;;;8.40;56.57;99772.72;7650717;32;37977;-83
2023/04/07 17:34:44;;;;;;;39.38;22.00;;;;;;;8.28;57.31;99787.31;7660019;32;37366;-83
2023/04/07 17:39:01;;;;;;;35.55;22.10;;;;;;;8.31;57.53;99785.16;7653775;32;40090;-84
2023/04/07 17:43:18;;;;;;;37.83;23.40;;;;;;;8.45;57.44;99791.81;7658838;32;40835;-83
2023/04/07 17:47:34;;;;;;;35.67;21.90;;;;;;;8.22;58.88;99798.38;7643724;32;38770;-84
2023/04/07 17:51:51;;;;;;;35.45;20.08;;;;;;;8.40;57.91;99800.72;7646583;32;38062;-83
2023/04/07 17:56:07;;;;;;;34.67;21.15;;;;;;;8.44;58.09;99803.78;7633597;32;39114;-83
2023/04/07 18:00:24;;;;;;;34.47;21.33;;;;;;;8.38;58.59;99812.91;7633383;32;40073;-82
2023/04/07 18:04:40;;;;;;;36.85;22.00;;;;;;;8.15;59.91;99814.06;7633757;32;38631;-82
2023/04/07 18:08:59;;;;;;;36.88;21.27;;;;;;;8.25;59.54;99819.59;7633136;32;37336;-82
2023/04/07 18:13:16;;;;;;;36.08;20.30;;;;;;;8.05;60.49;99825.59;7657744;32;39809;-81
2023/04/07 18:17:32;;;;;;;35.38;20.85;;;;;;;8.17;60.17;99831.72;7657587;32;40879;-81
2023/04/07 18:21:49;;;;;;;35.55;22.08;;;;;;;7.97;61.12;99832.31;7645646;32;37923;-82
2023/04/07 18:26:08;;;;;;;41.53;24.27;;;;;;;8.06;60.63;99843.56;7640004;32;38146;-81
2023/04/07 18:30:24;;;;;;;39.45;23.30;;;;;;;8.02;60.74;99847.84;7616472;32;39409;-81
2023/04/07 18:34:41;;;;;;;38.50;23.80;;;;;;;7.89;60.83;99860.72;7614589;32;40071;-81
2023/04/07 18:38:59;;;;;;;38.20;23.50;;;;;;;7.92;61.16;99869.44;7615884;32;40068;-81
2023/04/07 18:43:17;;;;;;;39.13;23.70;;;;;;;7.92;61.32;99869.44;7617790;32;37160;-81
2023/04/07 18:47:33;;;;;;;37.33;22.92;;;;;;;8.12;60.85;99874.28;7619103;32;40239;-82
2023/04/07 18:51:51;;;;;;;40.95;23.90;;;;;;;8.02;60.82;99880.41;7617490;32;39991;-79
2023/04/07 18:56:07;;;;;;;38.92;23.35;;;;;;;7.84;61.29;99878.84;7615275;32;37962;-81
2023/04/07 19:00:23;;;;;;;39.65;22.20;;;;;;;7.98;60.69;99869.25;7617067;32;37578;-82
2023/04/07 19:04:40;;;;;;;42.38;23.58;;;;;;;7.84;61.73;99868.78;7618800;32;39111;-81
2023/04/07 19:08:56;;;;;;;38.42;22.15;;;;;;;7.94;61.92;99880.88;7619998;32;40071;-81
2023/04/07 19:13:14;;;;;;;37.13;22.35;;;;;;;7.87;62.13;99879.16;7642342;32;38074;-82
2023/04/07 19:17:31;;;;;;;47.35;27.17;;;;;;;7.86;62.39;99888.38;7631457;32;37672;-81
2023/04/07 19:21:47;;;;;;;41.75;24.98;;;;;;;7.98;62.10;99880.09;7632515;32;39241;-81
2023/04/07 19:26:03;;;;;;;42.00;23.87;;;;;;;7.94;62.40;99878.16;7632045;32;39929;-81
2023/04/07 19:30:20;;;;;;;46.97;24.27;;;;;;;8.12;61.68;99868.88;7651393;32;38532;-80
2023/04/07 19:34:36;;;;;;;38.13;22.77;;;;;;;7.82;62.81;99881.81;7638975;32;37263;-80
2023/04/07 19:38:53;;;;;;;33.38;20.37;;;;;;;7.83;62.76;99888.88;7611804;32;40037;-81
2023/04/07 19:43:10;;;;;;;35.15;20.12;;;;;;;7.79;62.78;99876.88;7596907;32;39622;-80
2023/04/07 19:47:27;;;;;;;37.40;21.70;;;;;;;7.81;62.60;99880.19;7616107;32;37481;-79
2023/04/07 19:51:45;;;;;;;35.72;20.95;;;;;;;7.74;62.80;99884.94;7612725;32;36961;-80
2023/04/07 19:56:05;;;;;;;36.65;21.12;;;;;;;7.83;62.23;99883.47;7619548;32;40153;-80